sensor_id;sensor_type;location;lat;lon;timestamp;P1;durP1;ratioP1;P2;durP2;ratioP2
20739;SDS011;10530;49.968;19.844;2023-07-13T00:00:56;11.40;;;5.00;;
20739;SDS011;10530;49.968;19.844;2023-07-13T00:05:59;9.57;;;5.07;;
20739;SDS011;10530;49.968;19.844;2023-07-13T00:11:03;10.83;;;5.27;;
20739;SDS011;10530;49.968;19.844;2023-07-13T00:16:08;8.57;;;4.55;;
20739;SDS011;10530;49.968;19.844;2023-07-13T00:21:13;13.10;;;5.25;;
20739;SDS011;10530;49.968;19.844;2023-07-13T00:26:16;13.35;;;4.95;;
20739;SDS011;10530;49.968;19.844;2023-07-13T00:31:19;11.95;;;5.47;;
20739;SDS011;10530;49.968;19.844;2023-07-13T00:36:22;10.30;;;5.03;;
20739;SDS011;10530;49.968;19.844;2023-07-13T00:41:25;11.27;;;5.65;;
20739;SDS011;10530;49.968;19.844;2023-07-13T00:46:29;12.82;;;6.07;;
20739;SDS011;10530;49.968;19.844;2023-07-13T00:51:39;12.55;;;5.78;;
20739;SDS011;10530;49.968;19.844;2023-07-13T00:56:47;11.43;;;5.57;;
20739;SDS011;10530;49.968;19.844;2023-07-13T01:01:52;10.40;;;5.00;;
20739;SDS011;10530;49.968;19.844;2023-07-13T01:06:56;12.32;;;5.50;;
20739;SDS011;10530;49.968;19.844;2023-07-13T01:12:02;10.50;;;5.03;;
20739;SDS011;10530;49.968;19.844;2023-07-13T01:17:07;10.88;;;4.95;;
20739;SDS011;10530;49.968;19.844;2023-07-13T01:22:14;11.93;;;5.18;;
20739;SDS011;10530;49.968;19.844;2023-07-13T01:27:20;10.07;;;5.03;;
20739;SDS011;10530;49.968;19.844;2023-07-13T01:32:25;9.55;;;4.93;;
20739;SDS011;10530;49.968;19.844;2023-07-13T01:37:29;9.90;;;4.82;;
20739;SDS011;10530;49.968;19.844;2023-07-13T01:42:38;9.88;;;4.60;;
20739;SDS011;10530;49.968;19.844;2023-07-13T01:47:42;9.80;;;4.80;;
20739;SDS011;10530;49.968;19.844;2023-07-13T01:52:45;9.60;;;4.83;;
20739;SDS011;10530;49.968;19.844;2023-07-13T01:57:48;10.50;;;4.82;;
20739;SDS011;10530;49.968;19.844;2023-07-13T02:02:51;12.05;;;5.00;;
20739;SDS011;10530;49.968;19.844;2023-07-13T02:07:54;9.15;;;4.72;;
20739;SDS011;10530;49.968;19.844;2023-07-13T02:12:59;10.20;;;4.72;;
20739;SDS011;10530;49.968;19.844;2023-07-13T02:18:01;11.07;;;4.57;;
20739;SDS011;10530;49.968;19.844;2023-07-13T02:23:05;10.25;;;4.57;;
20739;SDS011;10530;49.968;19.844;2023-07-13T02:28:12;8.63;;;4.78;;
20739;SDS011;10530;49.968;19.844;2023-07-13T02:33:15;11.02;;;4.75;;
20739;SDS011;10530;49.968;19.844;2023-07-13T02:38:18;11.68;;;5.00;;
20739;SDS011;10530;49.968;19.844;2023-07-13T02:43:21;10.83;;;5.20;;
20739;SDS011;10530;49.968;19.844;2023-07-13T02:48:24;11.38;;;4.57;;
20739;SDS011;10530;49.968;19.844;2023-07-13T02:53:27;10.45;;;4.40;;
20739;SDS011;10530;49.968;19.844;2023-07-13T02:58:30;8.55;;;4.10;;
20739;SDS011;10530;49.968;19.844;2023-07-13T03:03:33;10.02;;;4.32;;
20739;SDS011;10530;49.968;19.844;2023-07-13T03:08:36;10.53;;;4.77;;
20739;SDS011;10530;49.968;19.844;2023-07-13T03:13:39;10.52;;;4.53;;
20739;SDS011;10530;49.968;19.844;2023-07-13T03:18:45;11.80;;;4.60;;
20739;SDS011;10530;49.968;19.844;2023-07-13T03:23:49;11.02;;;4.30;;
20739;SDS011;10530;49.968;19.844;2023-07-13T03:28:52;10.05;;;4.43;;
20739;SDS011;10530;49.968;19.844;2023-07-13T03:33:57;8.50;;;4.10;;
20739;SDS011;10530;49.968;19.844;2023-07-13T03:39:02;10.60;;;4.50;;
20739;SDS011;10530;49.968;19.844;2023-07-13T03:44:18;9.10;;;4.55;;
20739;SDS011;10530;49.968;19.844;2023-07-13T03:49:25;9.70;;;4.13;;
20739;SDS011;10530;49.968;19.844;2023-07-13T03:54:28;12.60;;;4.10;;
20739;SDS011;10530;49.968;19.844;2023-07-13T03:59:31;9.03;;;4.30;;
20739;SDS011;10530;49.968;19.844;2023-07-13T04:04:35;8.38;;;3.90;;
20739;SDS011;10530;49.968;19.844;2023-07-13T04:09:37;8.93;;;4.07;;
20739;SDS011;10530;49.968;19.844;2023-07-13T04:14:40;7.50;;;3.90;;
20739;SDS011;10530;49.968;19.844;2023-07-13T04:19:43;8.63;;;3.85;;
20739;SDS011;10530;49.968;19.844;2023-07-13T04:24:46;8.20;;;4.30;;
20739;SDS011;10530;49.968;19.844;2023-07-13T04:29:48;9.38;;;4.18;;
20739;SDS011;10530;49.968;19.844;2023-07-13T04:34:51;8.98;;;3.90;;
20739;SDS011;10530;49.968;19.844;2023-07-13T04:39:56;8.40;;;3.72;;
20739;SDS011;10530;49.968;19.844;2023-07-13T04:44:59;7.55;;;3.97;;
20739;SDS011;10530;49.968;19.844;2023-07-13T04:50:02;7.07;;;3.20;;
20739;SDS011;10530;49.968;19.844;2023-07-13T04:55:05;8.05;;;3.80;;
20739;SDS011;10530;49.968;19.844;2023-07-13T05:00:09;7.68;;;3.58;;
20739;SDS011;10530;49.968;19.844;2023-07-13T05:05:13;11.23;;;4.00;;
20739;SDS011;10530;49.968;19.844;2023-07-13T05:10:16;9.48;;;4.18;;
20739;SDS011;10530;49.968;19.844;2023-07-13T05:15:21;8.33;;;4.10;;
20739;SDS011;10530;49.968;19.844;2023-07-13T05:20:25;10.68;;;4.60;;
20739;SDS011;10530;49.968;19.844;2023-07-13T05:25:28;11.35;;;4.80;;
20739;SDS011;10530;49.968;19.844;2023-07-13T05:30:31;10.80;;;4.82;;
20739;SDS011;10530;49.968;19.844;2023-07-13T05:35:36;10.15;;;5.00;;
20739;SDS011;10530;49.968;19.844;2023-07-13T05:40:38;9.07;;;4.30;;
20739;SDS011;10530;49.968;19.844;2023-07-13T05:45:41;11.30;;;4.70;;
20739;SDS011;10530;49.968;19.844;2023-07-13T05:50:44;8.65;;;4.30;;
20739;SDS011;10530;49.968;19.844;2023-07-13T05:55:47;8.80;;;4.43;;
20739;SDS011;10530;49.968;19.844;2023-07-13T06:00:58;9.20;;;3.95;;
20739;SDS011;10530;49.968;19.844;2023-07-13T06:06:06;9.23;;;4.20;;
20739;SDS011;10530;49.968;19.844;2023-07-13T06:11:14;8.68;;;4.10;;
20739;SDS011;10530;49.968;19.844;2023-07-13T06:16:20;8.60;;;3.97;;
20739;SDS011;10530;49.968;19.844;2023-07-13T06:21:23;6.20;;;3.67;;
20739;SDS011;10530;49.968;19.844;2023-07-13T06:26:26;6.63;;;3.75;;
20739;SDS011;10530;49.968;19.844;2023-07-13T06:31:30;8.37;;;3.87;;
20739;SDS011;10530;49.968;19.844;2023-07-13T06:36:34;8.95;;;3.97;;
20739;SDS011;10530;49.968;19.844;2023-07-13T06:41:38;8.20;;;4.10;;
20739;SDS011;10530;49.968;19.844;2023-07-13T06:46:44;8.85;;;4.13;;
20739;SDS011;10530;49.968;19.844;2023-07-13T06:51:47;8.10;;;4.13;;
20739;SDS011;10530;49.968;19.844;2023-07-13T06:56:50;9.77;;;4.40;;
20739;SDS011;10530;49.968;19.844;2023-07-13T07:01:53;9.75;;;4.82;;
20739;SDS011;10530;49.968;19.844;2023-07-13T07:06:56;8.35;;;4.30;;
20739;SDS011;10530;49.968;19.844;2023-07-13T07:12:00;7.85;;;3.97;;
20739;SDS011;10530;49.968;19.844;2023-07-13T07:17:05;9.00;;;4.28;;
20739;SDS011;10530;49.968;19.844;2023-07-13T07:22:08;6.90;;;4.20;;
20739;SDS011;10530;49.968;19.844;2023-07-13T07:27:11;9.30;;;4.10;;
20739;SDS011;10530;49.968;19.844;2023-07-13T07:32:17;8.82;;;4.03;;
20739;SDS011;10530;49.968;19.844;2023-07-13T07:37:24;9.57;;;4.68;;
20739;SDS011;10530;49.968;19.844;2023-07-13T07:42:47;8.27;;;4.38;;
20739;SDS011;10530;49.968;19.844;2023-07-13T07:47:50;8.37;;;5.13;;
20739;SDS011;10530;49.968;19.844;2023-07-13T07:52:54;8.68;;;4.75;;
20739;SDS011;10530;49.968;19.844;2023-07-13T07:57:58;8.40;;;4.55;;
20739;SDS011;10530;49.968;19.844;2023-07-13T08:03:03;9.55;;;4.93;;
20739;SDS011;10530;49.968;19.844;2023-07-13T08:08:10;9.60;;;4.63;;
20739;SDS011;10530;49.968;19.844;2023-07-13T08:13:13;9.03;;;4.43;;
20739;SDS011;10530;49.968;19.844;2023-07-13T08:18:16;8.48;;;4.38;;
20739;SDS011;10530;49.968;19.844;2023-07-13T08:23:19;8.77;;;4.50;;
20739;SDS011;10530;49.968;19.844;2023-07-13T08:28:23;11.57;;;4.32;;
20739;SDS011;10530;49.968;19.844;2023-07-13T08:33:26;7.80;;;4.47;;
20739;SDS011;10530;49.968;19.844;2023-07-13T08:38:29;9.27;;;4.30;;
20739;SDS011;10530;49.968;19.844;2023-07-13T08:43:34;8.18;;;4.07;;
20739;SDS011;10530;49.968;19.844;2023-07-13T08:48:41;9.27;;;4.70;;
20739;SDS011;10530;49.968;19.844;2023-07-13T08:53:46;11.27;;;4.30;;
20739;SDS011;10530;49.968;19.844;2023-07-13T08:59:00;10.00;;;4.43;;
20739;SDS011;10530;49.968;19.844;2023-07-13T09:04:09;7.17;;;4.50;;
20739;SDS011;10530;49.968;19.844;2023-07-13T09:09:42;9.07;;;4.43;;
20739;SDS011;10530;49.968;19.844;2023-07-13T09:14:53;9.45;;;4.65;;
20739;SDS011;10530;49.968;19.844;2023-07-13T09:25:30;10.02;;;4.30;;
20739;SDS011;10530;49.968;19.844;2023-07-13T09:36:00;7.97;;;4.40;;
20739;SDS011;10530;49.968;19.844;2023-07-13T09:47:00;9.23;;;4.07;;
20739;SDS011;10530;49.968;19.844;2023-07-13T09:52:05;8.57;;;4.18;;
20739;SDS011;10530;49.968;19.844;2023-07-13T09:57:13;7.93;;;4.60;;
20739;SDS011;10530;49.968;19.844;2023-07-13T10:02:34;8.70;;;4.53;;
20739;SDS011;10530;49.968;19.844;2023-07-13T10:07:39;13.27;;;4.88;;
20739;SDS011;10530;49.968;19.844;2023-07-13T10:12:46;9.05;;;4.88;;
20739;SDS011;10530;49.968;19.844;2023-07-13T10:17:49;9.95;;;5.30;;
20739;SDS011;10530;49.968;19.844;2023-07-13T10:23:05;12.73;;;5.47;;
20739;SDS011;10530;49.968;19.844;2023-07-13T10:33:30;12.93;;;6.78;;
20739;SDS011;10530;49.968;19.844;2023-07-13T10:38:33;12.20;;;7.13;;
20739;SDS011;10530;49.968;19.844;2023-07-13T10:43:39;13.68;;;7.28;;
20739;SDS011;10530;49.968;19.844;2023-07-13T10:48:46;10.80;;;6.73;;
20739;SDS011;10530;49.968;19.844;2023-07-13T10:54:54;14.40;;;7.70;;
20739;SDS011;10530;49.968;19.844;2023-07-13T10:59:35;13.60;;;7.60;;
20739;SDS011;10530;49.968;19.844;2023-07-13T11:04:42;14.82;;;7.40;;
20739;SDS011;10530;49.968;19.844;2023-07-13T11:09:51;15.50;;;7.95;;
20739;SDS011;10530;49.968;19.844;2023-07-13T11:20:19;18.90;;;8.68;;
20739;SDS011;10530;49.968;19.844;2023-07-13T11:25:27;18.95;;;8.75;;
20739;SDS011;10530;49.968;19.844;2023-07-13T11:41:22;5.30;;;2.27;;
20739;SDS011;10530;49.968;19.844;2023-07-13T11:46:32;6.43;;;2.50;;
20739;SDS011;10530;49.968;19.844;2023-07-13T11:51:35;5.50;;;2.58;;
20739;SDS011;10530;49.968;19.844;2023-07-13T11:56:39;6.07;;;2.75;;
20739;SDS011;10530;49.968;19.844;2023-07-13T12:01:44;7.47;;;3.13;;
20739;SDS011;10530;49.968;19.844;2023-07-13T12:07:04;6.27;;;2.87;;
20739;SDS011;10530;49.968;19.844;2023-07-13T12:12:17;7.32;;;3.08;;
20739;SDS011;10530;49.968;19.844;2023-07-13T12:17:21;6.18;;;2.20;;
20739;SDS011;10530;49.968;19.844;2023-07-13T12:22:26;4.57;;;2.08;;
20739;SDS011;10530;49.968;19.844;2023-07-13T12:27:30;6.53;;;2.42;;
20739;SDS011;10530;49.968;19.844;2023-07-13T12:32:35;5.40;;;2.10;;
20739;SDS011;10530;49.968;19.844;2023-07-13T12:37:38;5.43;;;2.40;;
20739;SDS011;10530;49.968;19.844;2023-07-13T12:42:49;7.38;;;2.70;;
20739;SDS011;10530;49.968;19.844;2023-07-13T12:47:55;5.78;;;2.28;;
20739;SDS011;10530;49.968;19.844;2023-07-13T12:53:04;9.27;;;2.63;;
20739;SDS011;10530;49.968;19.844;2023-07-13T12:58:13;7.13;;;2.20;;
20739;SDS011;10530;49.968;19.844;2023-07-13T13:03:38;4.85;;;2.22;;
20739;SDS011;10530;49.968;19.844;2023-07-13T13:08:56;7.25;;;2.60;;
20739;SDS011;10530;49.968;19.844;2023-07-13T13:14:00;6.45;;;2.50;;
20739;SDS011;10530;49.968;19.844;2023-07-13T13:19:12;4.85;;;2.28;;
20739;SDS011;10530;49.968;19.844;2023-07-13T13:24:17;6.70;;;2.57;;
20739;SDS011;10530;49.968;19.844;2023-07-13T13:29:23;5.55;;;2.60;;
20739;SDS011;10530;49.968;19.844;2023-07-13T13:34:27;6.25;;;2.50;;
20739;SDS011;10530;49.968;19.844;2023-07-13T13:39:31;5.18;;;2.40;;
20739;SDS011;10530;49.968;19.844;2023-07-13T13:44:36;5.55;;;2.03;;
20739;SDS011;10530;49.968;19.844;2023-07-13T13:49:39;4.90;;;2.30;;
20739;SDS011;10530;49.968;19.844;2023-07-13T13:54:42;6.72;;;2.40;;
20739;SDS011;10530;49.968;19.844;2023-07-13T13:59:45;7.82;;;2.17;;
20739;SDS011;10530;49.968;19.844;2023-07-13T14:04:50;4.35;;;2.03;;
20739;SDS011;10530;49.968;19.844;2023-07-13T14:09:59;4.95;;;2.03;;
20739;SDS011;10530;49.968;19.844;2023-07-13T14:15:02;3.90;;;2.10;;
20739;SDS011;10530;49.968;19.844;2023-07-13T14:20:09;5.72;;;2.28;;
20739;SDS011;10530;49.968;19.844;2023-07-13T14:25:14;4.82;;;2.30;;
20739;SDS011;10530;49.968;19.844;2023-07-13T14:30:19;5.95;;;2.50;;
20739;SDS011;10530;49.968;19.844;2023-07-13T14:35:23;5.40;;;2.22;;
20739;SDS011;10530;49.968;19.844;2023-07-13T14:40:28;5.50;;;2.80;;
20739;SDS011;10530;49.968;19.844;2023-07-13T14:45:32;6.00;;;3.10;;
20739;SDS011;10530;49.968;19.844;2023-07-13T14:50:35;7.07;;;3.22;;
20739;SDS011;10530;49.968;19.844;2023-07-13T14:55:40;7.45;;;3.22;;
20739;SDS011;10530;49.968;19.844;2023-07-13T15:00:44;5.35;;;3.15;;
20739;SDS011;10530;49.968;19.844;2023-07-13T15:05:48;9.33;;;4.30;;
20739;SDS011;10530;49.968;19.844;2023-07-13T15:10:52;7.13;;;3.40;;
20739;SDS011;10530;49.968;19.844;2023-07-13T15:15:55;6.60;;;3.58;;
20739;SDS011;10530;49.968;19.844;2023-07-13T15:20:58;7.95;;;4.00;;
20739;SDS011;10530;49.968;19.844;2023-07-13T15:26:04;8.13;;;3.97;;
20739;SDS011;10530;49.968;19.844;2023-07-13T15:31:22;9.90;;;4.93;;
20739;SDS011;10530;49.968;19.844;2023-07-13T15:36:26;7.47;;;4.03;;
20739;SDS011;10530;49.968;19.844;2023-07-13T15:41:30;6.97;;;4.20;;
20739;SDS011;10530;49.968;19.844;2023-07-13T15:46:35;5.97;;;3.85;;
20739;SDS011;10530;49.968;19.844;2023-07-13T15:51:38;6.13;;;3.58;;
20739;SDS011;10530;49.968;19.844;2023-07-13T15:56:40;7.77;;;3.70;;
20739;SDS011;10530;49.968;19.844;2023-07-13T16:01:45;7.40;;;4.05;;
20739;SDS011;10530;49.968;19.844;2023-07-13T16:06:50;7.70;;;3.88;;
20739;SDS011;10530;49.968;19.844;2023-07-13T16:11:53;6.55;;;3.40;;
20739;SDS011;10530;49.968;19.844;2023-07-13T16:16:59;6.95;;;3.55;;
20739;SDS011;10530;49.968;19.844;2023-07-13T16:22:08;7.67;;;3.70;;
20739;SDS011;10530;49.968;19.844;2023-07-13T16:27:18;7.78;;;3.72;;
20739;SDS011;10530;49.968;19.844;2023-07-13T16:32:21;8.10;;;3.47;;
20739;SDS011;10530;49.968;19.844;2023-07-13T16:37:26;12.50;;;5.55;;
20739;SDS011;10530;49.968;19.844;2023-07-13T16:42:31;13.75;;;5.63;;
20739;SDS011;10530;49.968;19.844;2023-07-13T16:47:33;12.30;;;5.20;;
20739;SDS011;10530;49.968;19.844;2023-07-13T16:52:37;13.35;;;5.38;;
20739;SDS011;10530;49.968;19.844;2023-07-13T16:57:40;11.80;;;5.20;;
20739;SDS011;10530;49.968;19.844;2023-07-13T17:02:45;13.75;;;5.03;;
20739;SDS011;10530;49.968;19.844;2023-07-13T17:07:49;10.85;;;5.38;;
20739;SDS011;10530;49.968;19.844;2023-07-13T17:12:53;10.90;;;5.50;;
20739;SDS011;10530;49.968;19.844;2023-07-13T17:17:57;11.82;;;5.82;;
20739;SDS011;10530;49.968;19.844;2023-07-13T17:23:17;10.82;;;5.85;;
20739;SDS011;10530;49.968;19.844;2023-07-13T17:28:22;11.77;;;5.60;;
20739;SDS011;10530;49.968;19.844;2023-07-13T17:33:29;14.23;;;6.20;;
20739;SDS011;10530;49.968;19.844;2023-07-13T17:38:36;11.40;;;6.20;;
20739;SDS011;10530;49.968;19.844;2023-07-13T17:43:45;14.90;;;6.57;;
20739;SDS011;10530;49.968;19.844;2023-07-13T17:48:51;13.55;;;6.75;;
20739;SDS011;10530;49.968;19.844;2023-07-13T17:53:55;14.88;;;6.15;;
20739;SDS011;10530;49.968;19.844;2023-07-13T17:58:59;12.48;;;6.45;;
20739;SDS011;10530;49.968;19.844;2023-07-13T18:04:02;16.33;;;6.30;;
20739;SDS011;10530;49.968;19.844;2023-07-13T18:09:17;13.98;;;6.25;;
20739;SDS011;10530;49.968;19.844;2023-07-13T18:14:24;12.60;;;6.05;;
20739;SDS011;10530;49.968;19.844;2023-07-13T18:19:31;14.70;;;7.20;;
20739;SDS011;10530;49.968;19.844;2023-07-13T18:24:40;13.80;;;6.47;;
20739;SDS011;10530;49.968;19.844;2023-07-13T18:29:44;15.23;;;6.67;;
20739;SDS011;10530;49.968;19.844;2023-07-13T18:34:47;11.05;;;5.68;;
20739;SDS011;10530;49.968;19.844;2023-07-13T18:39:54;15.95;;;6.10;;
20739;SDS011;10530;49.968;19.844;2023-07-13T18:44:57;13.93;;;6.32;;
20739;SDS011;10530;49.968;19.844;2023-07-13T18:50:00;11.38;;;5.45;;
20739;SDS011;10530;49.968;19.844;2023-07-13T18:55:12;15.57;;;5.90;;
20739;SDS011;10530;49.968;19.844;2023-07-13T19:00:17;14.60;;;6.28;;
20739;SDS011;10530;49.968;19.844;2023-07-13T19:05:21;12.57;;;5.43;;
20739;SDS011;10530;49.968;19.844;2023-07-13T19:10:26;12.65;;;4.90;;
20739;SDS011;10530;49.968;19.844;2023-07-13T19:15:30;9.90;;;4.57;;
20739;SDS011;10530;49.968;19.844;2023-07-13T19:20:35;10.90;;;5.27;;
20739;SDS011;10530;49.968;19.844;2023-07-13T19:25:38;12.10;;;5.13;;
20739;SDS011;10530;49.968;19.844;2023-07-13T19:30:41;13.95;;;5.75;;
20739;SDS011;10530;49.968;19.844;2023-07-13T19:35:44;12.45;;;5.55;;
20739;SDS011;10530;49.968;19.844;2023-07-13T19:40:47;10.18;;;4.85;;
20739;SDS011;10530;49.968;19.844;2023-07-13T19:45:50;11.23;;;5.40;;
20739;SDS011;10530;49.968;19.844;2023-07-13T19:50:55;10.65;;;5.25;;
20739;SDS011;10530;49.968;19.844;2023-07-13T19:55:58;12.43;;;5.65;;
20739;SDS011;10530;49.968;19.844;2023-07-13T20:01:02;10.13;;;5.53;;
20739;SDS011;10530;49.968;19.844;2023-07-13T20:06:26;12.35;;;5.97;;
20739;SDS011;10530;49.968;19.844;2023-07-13T20:11:29;12.47;;;5.73;;
20739;SDS011;10530;49.968;19.844;2023-07-13T20:16:31;10.10;;;5.78;;
20739;SDS011;10530;49.968;19.844;2023-07-13T20:21:34;10.52;;;5.57;;
20739;SDS011;10530;49.968;19.844;2023-07-13T20:26:37;10.35;;;5.38;;
20739;SDS011;10530;49.968;19.844;2023-07-13T20:31:43;11.43;;;5.90;;
20739;SDS011;10530;49.968;19.844;2023-07-13T20:36:49;10.47;;;5.37;;
20739;SDS011;10530;49.968;19.844;2023-07-13T20:41:52;10.45;;;5.75;;
20739;SDS011;10530;49.968;19.844;2023-07-13T20:46:55;14.00;;;5.40;;
20739;SDS011;10530;49.968;19.844;2023-07-13T20:51:58;21.73;;;5.03;;
20739;SDS011;10530;49.968;19.844;2023-07-13T20:57:02;13.25;;;6.22;;
20739;SDS011;10530;49.968;19.844;2023-07-13T21:02:21;11.53;;;5.70;;
20739;SDS011;10530;49.968;19.844;2023-07-13T21:07:35;9.98;;;5.47;;
20739;SDS011;10530;49.968;19.844;2023-07-13T21:12:39;10.60;;;5.63;;
20739;SDS011;10530;49.968;19.844;2023-07-13T21:17:42;11.50;;;5.75;;
20739;SDS011;10530;49.968;19.844;2023-07-13T21:22:48;13.30;;;5.93;;
20739;SDS011;10530;49.968;19.844;2023-07-13T21:27:52;11.40;;;5.93;;
20739;SDS011;10530;49.968;19.844;2023-07-13T21:32:56;12.35;;;5.55;;
20739;SDS011;10530;49.968;19.844;2023-07-13T21:38:01;11.65;;;6.15;;
20739;SDS011;10530;49.968;19.844;2023-07-13T21:43:04;10.95;;;5.90;;
20739;SDS011;10530;49.968;19.844;2023-07-13T21:48:12;14.13;;;6.00;;
20739;SDS011;10530;49.968;19.844;2023-07-13T21:53:21;11.53;;;5.40;;
20739;SDS011;10530;49.968;19.844;2023-07-13T21:58:25;12.07;;;6.30;;
20739;SDS011;10530;49.968;19.844;2023-07-13T22:03:34;11.68;;;5.90;;
20739;SDS011;10530;49.968;19.844;2023-07-13T22:08:38;13.90;;;5.70;;
20739;SDS011;10530;49.968;19.844;2023-07-13T22:13:41;12.88;;;5.90;;
20739;SDS011;10530;49.968;19.844;2023-07-13T22:18:45;23.83;;;5.70;;
20739;SDS011;10530;49.968;19.844;2023-07-13T22:23:49;12.35;;;5.85;;
20739;SDS011;10530;49.968;19.844;2023-07-13T22:28:53;11.30;;;5.80;;
20739;SDS011;10530;49.968;19.844;2023-07-13T22:33:57;12.52;;;5.68;;
20739;SDS011;10530;49.968;19.844;2023-07-13T22:39:00;12.30;;;5.45;;
20739;SDS011;10530;49.968;19.844;2023-07-13T22:44:09;46.73;;;7.37;;
20739;SDS011;10530;49.968;19.844;2023-07-13T22:49:22;12.38;;;4.97;;
20739;SDS011;10530;49.968;19.844;2023-07-13T22:54:34;28.35;;;6.05;;
20739;SDS011;10530;49.968;19.844;2023-07-13T22:59:37;10.60;;;5.20;;
20739;SDS011;10530;49.968;19.844;2023-07-13T23:04:40;8.93;;;5.07;;
20739;SDS011;10530;49.968;19.844;2023-07-13T23:09:43;55.57;;;5.77;;
20739;SDS011;10530;49.968;19.844;2023-07-13T23:15:14;12.30;;;4.93;;
20739;SDS011;10530;49.968;19.844;2023-07-13T23:25:31;40.83;;;5.68;;
20739;SDS011;10530;49.968;19.844;2023-07-13T23:30:34;11.05;;;5.32;;
20739;SDS011;10530;49.968;19.844;2023-07-13T23:35:38;9.83;;;5.10;;
20739;SDS011;10530;49.968;19.844;2023-07-13T23:40:41;12.18;;;5.13;;
20739;SDS011;10530;49.968;19.844;2023-07-13T23:45:43;16.17;;;5.45;;
20739;SDS011;10530;49.968;19.844;2023-07-13T23:50:47;46.95;;;6.50;;
20739;SDS011;10530;49.968;19.844;2023-07-13T23:55:51;27.60;;;5.70;;
